sensor_id;sensor_type;location;lat;lon;timestamp;pressure;altitude;pressure_sealevel;temperature;humidity
36192;BME280;22233;42.708;23.360;2022-12-18T00:01:29;96157.59;;;6.66;80.44
36192;BME280;22233;42.708;23.360;2022-12-18T00:03:57;96174.03;;;6.75;79.95
36192;BME280;22233;42.708;23.360;2022-12-18T00:06:23;96179.16;;;6.51;80.81
36192;BME280;22233;42.708;23.360;2022-12-18T00:08:49;96174.56;;;6.51;81.28
36192;BME280;22233;42.708;23.360;2022-12-18T00:11:20;96161.84;;;6.26;81.30
36192;BME280;22233;42.708;23.360;2022-12-18T00:13:47;96177.50;;;6.29;81.45
36192;BME280;22233;42.708;23.360;2022-12-18T00:16:15;96188.84;;;6.52;80.40
36192;BME280;22233;42.708;23.360;2022-12-18T00:18:42;96174.28;;;6.48;80.34
36192;BME280;22233;42.708;23.360;2022-12-18T00:21:09;96186.66;;;6.33;80.84
36192;BME280;22233;42.708;23.360;2022-12-18T00:23:36;96175.06;;;6.33;80.60
36192;BME280;22233;42.708;23.360;2022-12-18T00:26:05;96196.94;;;6.26;80.84
36192;BME280;22233;42.708;23.360;2022-12-18T00:28:32;96184.50;;;6.20;81.12
36192;BME280;22233;42.708;23.360;2022-12-18T00:31:02;96199.06;;;6.24;81.62
36192;BME280;22233;42.708;23.360;2022-12-18T00:33:27;96200.66;;;6.15;81.49
36192;BME280;22233;42.708;23.360;2022-12-18T00:35:53;96193.63;;;6.09;80.89
36192;BME280;22233;42.708;23.360;2022-12-18T00:38:18;96209.31;;;6.27;80.41
36192;BME280;22233;42.708;23.360;2022-12-18T00:40:44;96188.25;;;6.19;80.39
36192;BME280;22233;42.708;23.360;2022-12-18T00:43:09;96214.25;;;5.83;81.93
36192;BME280;22233;42.708;23.360;2022-12-18T00:45:35;96220.50;;;5.93;81.49
36192;BME280;22233;42.708;23.360;2022-12-18T00:48:00;96201.16;;;6.02;81.06
36192;BME280;22233;42.708;23.360;2022-12-18T00:50:25;96220.56;;;5.98;80.76
36192;BME280;22233;42.708;23.360;2022-12-18T00:52:51;96210.69;;;5.67;81.10
36192;BME280;22233;42.708;23.360;2022-12-18T00:55:17;96222.59;;;5.81;81.52
36192;BME280;22233;42.708;23.360;2022-12-18T00:57:43;96239.47;;;6.09;80.19
36192;BME280;22233;42.708;23.360;2022-12-18T01:00:11;96223.75;;;5.90;80.56
36192;BME280;22233;42.708;23.360;2022-12-18T01:02:37;96238.47;;;5.72;81.30
36192;BME280;22233;42.708;23.360;2022-12-18T01:05:03;96224.28;;;5.92;80.48
36192;BME280;22233;42.708;23.360;2022-12-18T01:07:28;96222.31;;;5.77;81.05
36192;BME280;22233;42.708;23.360;2022-12-18T01:09:54;96232.00;;;5.73;80.89
36192;BME280;22233;42.708;23.360;2022-12-18T01:12:19;96239.06;;;5.79;80.99
36192;BME280;22233;42.708;23.360;2022-12-18T01:14:44;96226.41;;;5.80;80.65
36192;BME280;22233;42.708;23.360;2022-12-18T01:17:10;96230.19;;;5.84;80.24
36192;BME280;22233;42.708;23.360;2022-12-18T01:19:35;96235.72;;;5.62;80.62
36192;BME280;22233;42.708;23.360;2022-12-18T01:22:01;96247.91;;;5.70;80.80
36192;BME280;22233;42.708;23.360;2022-12-18T01:24:26;96215.72;;;5.53;80.78
36192;BME280;22233;42.708;23.360;2022-12-18T01:26:52;96223.00;;;5.52;81.10
36192;BME280;22233;42.708;23.360;2022-12-18T01:29:17;96251.41;;;5.70;80.74
36192;BME280;22233;42.708;23.360;2022-12-18T01:31:43;96254.78;;;5.50;80.96
36192;BME280;22233;42.708;23.360;2022-12-18T01:34:08;96253.13;;;5.44;81.11
36192;BME280;22233;42.708;23.360;2022-12-18T01:36:37;96239.13;;;5.42;81.30
36192;BME280;22233;42.708;23.360;2022-12-18T01:39:09;96269.22;;;5.34;81.77
36192;BME280;22233;42.708;23.360;2022-12-18T01:41:35;96263.00;;;5.28;82.14
36192;BME280;22233;42.708;23.360;2022-12-18T01:49:46;96256.88;;;5.38;80.78
36192;BME280;22233;42.708;23.360;2022-12-18T01:52:11;96266.53;;;5.34;80.67
36192;BME280;22233;42.708;23.360;2022-12-18T01:54:37;96268.13;;;5.30;80.80
36192;BME280;22233;42.708;23.360;2022-12-18T01:57:02;96272.00;;;5.49;80.26
36192;BME280;22233;42.708;23.360;2022-12-18T01:59:29;96269.16;;;5.24;80.70
36192;BME280;22233;42.708;23.360;2022-12-18T02:01:56;96264.03;;;5.22;80.86
36192;BME280;22233;42.708;23.360;2022-12-18T02:04:23;96261.16;;;5.39;80.13
36192;BME280;22233;42.708;23.360;2022-12-18T02:06:58;96273.16;;;5.21;80.72
36192;BME280;22233;42.708;23.360;2022-12-18T02:09:32;96279.47;;;5.37;80.12
36192;BME280;22233;42.708;23.360;2022-12-18T02:12:05;96297.88;;;5.13;80.90
36192;BME280;22233;42.708;23.360;2022-12-18T02:20:24;96290.53;;;5.35;79.83
36192;BME280;22233;42.708;23.360;2022-12-18T02:23:36;96297.72;;;5.25;80.22
36192;BME280;22233;42.708;23.360;2022-12-18T02:26:22;96299.94;;;5.33;79.84
36192;BME280;22233;42.708;23.360;2022-12-18T02:31:25;96296.75;;;5.04;80.32
36192;BME280;22233;42.708;23.360;2022-12-18T02:33:54;96300.97;;;5.27;79.59
36192;BME280;22233;42.708;23.360;2022-12-18T02:36:21;96310.94;;;5.26;79.61
36192;BME280;22233;42.708;23.360;2022-12-18T02:38:50;96295.41;;;5.06;80.15
36192;BME280;22233;42.708;23.360;2022-12-18T02:41:18;96306.34;;;5.27;79.28
36192;BME280;22233;42.708;23.360;2022-12-18T02:43:56;96282.81;;;4.85;80.52
36192;BME280;22233;42.708;23.360;2022-12-18T02:46:27;96319.44;;;5.13;79.94
36192;BME280;22233;42.708;23.360;2022-12-18T02:49:00;96309.34;;;4.98;80.42
36192;BME280;22233;42.708;23.360;2022-12-18T02:51:36;96306.19;;;4.79;81.13
36192;BME280;22233;42.708;23.360;2022-12-18T02:54:09;96316.34;;;4.99;80.08
36192;BME280;22233;42.708;23.360;2022-12-18T02:56:42;96299.44;;;5.04;80.01
36192;BME280;22233;42.708;23.360;2022-12-18T02:59:18;96317.00;;;4.84;80.69
36192;BME280;22233;42.708;23.360;2022-12-18T03:04:26;96304.16;;;4.91;80.40
36192;BME280;22233;42.708;23.360;2022-12-18T03:06:56;96296.16;;;4.69;80.88
36192;BME280;22233;42.708;23.360;2022-12-18T03:09:33;96300.09;;;4.62;81.35
36192;BME280;22233;42.708;23.360;2022-12-18T03:12:10;96318.53;;;4.75;80.38
36192;BME280;22233;42.708;23.360;2022-12-18T03:15:03;96327.31;;;4.92;79.66
36192;BME280;22233;42.708;23.360;2022-12-18T03:17:31;96334.84;;;4.90;79.17
36192;BME280;22233;42.708;23.360;2022-12-18T03:20:04;96332.75;;;4.97;79.43
36192;BME280;22233;42.708;23.360;2022-12-18T03:22:33;96337.06;;;4.98;79.62
36192;BME280;22233;42.708;23.360;2022-12-18T03:25:03;96342.47;;;5.31;78.32
36192;BME280;22233;42.708;23.360;2022-12-18T03:27:31;96340.47;;;5.16;77.84
36192;BME280;22233;42.708;23.360;2022-12-18T03:30:04;96346.00;;;5.31;77.44
36192;BME280;22233;42.708;23.360;2022-12-18T03:33:01;96354.13;;;4.82;78.62
36192;BME280;22233;42.708;23.360;2022-12-18T03:35:31;96346.69;;;4.89;78.27
36192;BME280;22233;42.708;23.360;2022-12-18T03:37:58;96365.53;;;4.89;78.41
36192;BME280;22233;42.708;23.360;2022-12-18T03:40:31;96340.44;;;4.84;77.79
36192;BME280;22233;42.708;23.360;2022-12-18T03:43:10;96346.19;;;4.70;77.87
36192;BME280;22233;42.708;23.360;2022-12-18T03:45:48;96364.84;;;4.99;77.48
36192;BME280;22233;42.708;23.360;2022-12-18T03:48:29;96370.34;;;4.87;77.89
36192;BME280;22233;42.708;23.360;2022-12-18T03:51:06;96383.84;;;4.65;78.24
36192;BME280;22233;42.708;23.360;2022-12-18T03:56:15;96350.91;;;4.58;77.66
36192;BME280;22233;42.708;23.360;2022-12-18T03:58:41;96369.19;;;4.56;77.74
36192;BME280;22233;42.708;23.360;2022-12-18T04:01:12;96367.56;;;4.55;77.83
36192;BME280;22233;42.708;23.360;2022-12-18T04:03:39;96384.22;;;4.52;77.87
36192;BME280;22233;42.708;23.360;2022-12-18T04:06:05;96385.78;;;4.70;77.61
36192;BME280;22233;42.708;23.360;2022-12-18T04:08:31;96379.91;;;4.29;78.95
36192;BME280;22233;42.708;23.360;2022-12-18T04:10:59;96408.50;;;4.57;77.65
36192;BME280;22233;42.708;23.360;2022-12-18T04:13:28;96403.25;;;4.67;77.95
36192;BME280;22233;42.708;23.360;2022-12-18T04:15:54;96398.53;;;4.57;77.72
36192;BME280;22233;42.708;23.360;2022-12-18T04:18:20;96407.88;;;4.72;77.71
36192;BME280;22233;42.708;23.360;2022-12-18T04:20:45;96401.00;;;4.59;77.36
36192;BME280;22233;42.708;23.360;2022-12-18T04:23:10;96420.50;;;4.49;77.96
36192;BME280;22233;42.708;23.360;2022-12-18T04:25:36;96399.91;;;4.38;77.81
36192;BME280;22233;42.708;23.360;2022-12-18T04:28:01;96414.50;;;4.64;77.63
36192;BME280;22233;42.708;23.360;2022-12-18T04:30:26;96431.28;;;4.49;77.74
36192;BME280;22233;42.708;23.360;2022-12-18T04:32:52;96412.91;;;4.46;77.40
36192;BME280;22233;42.708;23.360;2022-12-18T04:35:17;96425.13;;;4.54;76.52
36192;BME280;22233;42.708;23.360;2022-12-18T04:37:43;96435.97;;;4.59;76.42
36192;BME280;22233;42.708;23.360;2022-12-18T04:40:08;96420.50;;;4.49;76.29
36192;BME280;22233;42.708;23.360;2022-12-18T04:42:34;96426.13;;;4.48;76.10
36192;BME280;22233;42.708;23.360;2022-12-18T04:44:59;96441.72;;;4.46;76.28
36192;BME280;22233;42.708;23.360;2022-12-18T04:47:25;96428.38;;;4.56;75.38
36192;BME280;22233;42.708;23.360;2022-12-18T04:49:50;96452.56;;;4.51;75.78
36192;BME280;22233;42.708;23.360;2022-12-18T04:52:15;96437.47;;;4.50;75.36
36192;BME280;22233;42.708;23.360;2022-12-18T04:54:41;96446.94;;;3.96;76.82
36192;BME280;22233;42.708;23.360;2022-12-18T04:57:06;96460.81;;;4.27;76.12
36192;BME280;22233;42.708;23.360;2022-12-18T04:59:32;96478.16;;;4.53;74.96
36192;BME280;22233;42.708;23.360;2022-12-18T05:01:57;96475.75;;;4.01;76.03
36192;BME280;22233;42.708;23.360;2022-12-18T05:04:23;96471.44;;;4.17;75.77
36192;BME280;22233;42.708;23.360;2022-12-18T05:06:48;96464.69;;;3.97;76.02
36192;BME280;22233;42.708;23.360;2022-12-18T05:09:13;96472.16;;;3.95;76.86
36192;BME280;22233;42.708;23.360;2022-12-18T05:11:39;96460.13;;;4.15;75.97
36192;BME280;22233;42.708;23.360;2022-12-18T05:14:04;96471.84;;;4.09;75.21
36192;BME280;22233;42.708;23.360;2022-12-18T05:16:30;96492.13;;;3.99;75.99
36192;BME280;22233;42.708;23.360;2022-12-18T05:18:55;96464.50;;;4.04;75.69
36192;BME280;22233;42.708;23.360;2022-12-18T05:21:21;96491.25;;;4.11;75.48
36192;BME280;22233;42.708;23.360;2022-12-18T05:23:46;96503.47;;;4.02;76.18
36192;BME280;22233;42.708;23.360;2022-12-18T05:26:15;96467.75;;;4.06;75.49
36192;BME280;22233;42.708;23.360;2022-12-18T05:28:42;96500.03;;;4.06;76.23
36192;BME280;22233;42.708;23.360;2022-12-18T05:31:07;96505.09;;;4.03;75.80
36192;BME280;22233;42.708;23.360;2022-12-18T05:33:34;96498.41;;;4.05;75.50
36192;BME280;22233;42.708;23.360;2022-12-18T05:36:01;96489.63;;;3.93;75.83
36192;BME280;22233;42.708;23.360;2022-12-18T05:38:29;96514.59;;;4.10;76.12
36192;BME280;22233;42.708;23.360;2022-12-18T05:40:55;96520.81;;;4.11;75.98
36192;BME280;22233;42.708;23.360;2022-12-18T05:43:22;96512.50;;;4.12;75.15
36192;BME280;22233;42.708;23.360;2022-12-18T05:45:49;96526.09;;;3.89;75.71
36192;BME280;22233;42.708;23.360;2022-12-18T05:48:15;96533.28;;;4.00;75.06
36192;BME280;22233;42.708;23.360;2022-12-18T05:50:42;96520.72;;;4.06;74.81
36192;BME280;22233;42.708;23.360;2022-12-18T05:53:10;96515.41;;;3.77;75.52
36192;BME280;22233;42.708;23.360;2022-12-18T05:55:38;96520.63;;;3.84;74.93
36192;BME280;22233;42.708;23.360;2022-12-18T05:58:05;96530.34;;;4.18;73.66
36192;BME280;22233;42.708;23.360;2022-12-18T06:00:32;96531.72;;;4.04;74.10
36192;BME280;22233;42.708;23.360;2022-12-18T06:02:58;96535.25;;;4.05;74.61
36192;BME280;22233;42.708;23.360;2022-12-18T06:05:24;96547.56;;;4.00;74.35
36192;BME280;22233;42.708;23.360;2022-12-18T06:07:50;96549.16;;;3.85;74.41
36192;BME280;22233;42.708;23.360;2022-12-18T06:10:16;96551.78;;;3.96;74.91
36192;BME280;22233;42.708;23.360;2022-12-18T06:12:41;96534.06;;;3.84;74.07
36192;BME280;22233;42.708;23.360;2022-12-18T06:15:07;96534.75;;;3.91;74.33
36192;BME280;22233;42.708;23.360;2022-12-18T06:17:33;96560.72;;;3.85;74.37
36192;BME280;22233;42.708;23.360;2022-12-18T06:19:59;96557.13;;;3.79;74.78
36192;BME280;22233;42.708;23.360;2022-12-18T06:22:25;96555.72;;;3.77;74.66
36192;BME280;22233;42.708;23.360;2022-12-18T06:24:51;96569.94;;;3.89;74.33
36192;BME280;22233;42.708;23.360;2022-12-18T06:27:16;96556.19;;;4.03;73.84
36192;BME280;22233;42.708;23.360;2022-12-18T06:29:42;96561.28;;;3.87;74.32
36192;BME280;22233;42.708;23.360;2022-12-18T06:32:07;96566.28;;;3.95;74.21
36192;BME280;22233;42.708;23.360;2022-12-18T06:34:33;96566.00;;;3.80;74.60
36192;BME280;22233;42.708;23.360;2022-12-18T06:36:59;96578.97;;;3.83;74.43
36192;BME280;22233;42.708;23.360;2022-12-18T06:39:27;96579.34;;;3.75;74.29
36192;BME280;22233;42.708;23.360;2022-12-18T06:41:52;96580.19;;;3.92;73.44
36192;BME280;22233;42.708;23.360;2022-12-18T06:44:18;96597.84;;;3.88;73.39
36192;BME280;22233;42.708;23.360;2022-12-18T06:46:43;96589.78;;;3.88;73.05
36192;BME280;22233;42.708;23.360;2022-12-18T06:49:08;96587.94;;;3.89;73.52
36192;BME280;22233;42.708;23.360;2022-12-18T06:51:35;96588.06;;;3.82;73.59
36192;BME280;22233;42.708;23.360;2022-12-18T06:54:01;96589.09;;;3.93;72.60
36192;BME280;22233;42.708;23.360;2022-12-18T06:56:26;96599.50;;;4.06;73.20
36192;BME280;22233;42.708;23.360;2022-12-18T06:58:52;96608.72;;;4.10;72.59
36192;BME280;22233;42.708;23.360;2022-12-18T07:01:17;96609.28;;;3.95;72.02
36192;BME280;22233;42.708;23.360;2022-12-18T07:03:43;96610.06;;;4.25;71.71
36192;BME280;22233;42.708;23.360;2022-12-18T07:06:17;96607.50;;;4.01;71.33
36192;BME280;22233;42.708;23.360;2022-12-18T07:08:44;96616.41;;;4.18;70.89
36192;BME280;22233;42.708;23.360;2022-12-18T07:11:10;96602.41;;;3.88;72.00
36192;BME280;22233;42.708;23.360;2022-12-18T07:13:36;96616.00;;;4.10;71.20
36192;BME280;22233;42.708;23.360;2022-12-18T07:16:09;96621.94;;;4.12;71.19
36192;BME280;22233;42.708;23.360;2022-12-18T07:18:35;96619.59;;;4.15;70.89
36192;BME280;22233;42.708;23.360;2022-12-18T07:21:09;96598.88;;;4.16;71.00
36192;BME280;22233;42.708;23.360;2022-12-18T07:23:35;96623.19;;;4.21;70.79
36192;BME280;22233;42.708;23.360;2022-12-18T07:26:11;96615.53;;;4.13;71.00
36192;BME280;22233;42.708;23.360;2022-12-18T07:28:39;96615.00;;;3.99;70.75
36192;BME280;22233;42.708;23.360;2022-12-18T07:31:06;96611.69;;;4.09;71.50
36192;BME280;22233;42.708;23.360;2022-12-18T07:33:33;96628.88;;;4.08;71.25
36192;BME280;22233;42.708;23.360;2022-12-18T07:36:03;96631.56;;;4.08;72.04
36192;BME280;22233;42.708;23.360;2022-12-18T07:38:29;96619.34;;;3.88;72.27
36192;BME280;22233;42.708;23.360;2022-12-18T07:41:10;96605.72;;;3.78;72.66
36192;BME280;22233;42.708;23.360;2022-12-18T07:43:36;96619.63;;;3.87;72.90
36192;BME280;22233;42.708;23.360;2022-12-18T07:46:02;96629.41;;;3.93;73.08
36192;BME280;22233;42.708;23.360;2022-12-18T07:48:28;96633.53;;;3.84;73.02
36192;BME280;22233;42.708;23.360;2022-12-18T07:51:01;96620.91;;;3.84;73.18
36192;BME280;22233;42.708;23.360;2022-12-18T07:53:27;96638.66;;;3.85;73.19
36192;BME280;22233;42.708;23.360;2022-12-18T07:56:05;96615.94;;;3.64;73.02
36192;BME280;22233;42.708;23.360;2022-12-18T07:58:32;96639.19;;;3.70;73.35
36192;BME280;22233;42.708;23.360;2022-12-18T08:01:08;96644.47;;;3.65;73.36
36192;BME280;22233;42.708;23.360;2022-12-18T08:03:34;96647.13;;;3.77;73.42
36192;BME280;22233;42.708;23.360;2022-12-18T08:06:09;96663.47;;;4.04;73.33
36192;BME280;22233;42.708;23.360;2022-12-18T08:08:35;96669.97;;;3.91;73.16
36192;BME280;22233;42.708;23.360;2022-12-18T08:11:01;96666.00;;;3.82;73.74
36192;BME280;22233;42.708;23.360;2022-12-18T08:13:27;96671.81;;;4.03;73.34
36192;BME280;22233;42.708;23.360;2022-12-18T08:16:01;96673.22;;;3.93;73.98
36192;BME280;22233;42.708;23.360;2022-12-18T08:18:28;96675.56;;;4.18;72.83
36192;BME280;22233;42.708;23.360;2022-12-18T08:20:54;96691.78;;;4.07;73.31
36192;BME280;22233;42.708;23.360;2022-12-18T08:23:19;96671.53;;;3.75;73.00
36192;BME280;22233;42.708;23.360;2022-12-18T08:25:45;96681.72;;;4.02;72.38
36192;BME280;22233;42.708;23.360;2022-12-18T08:28:10;96688.34;;;3.83;73.38
36192;BME280;22233;42.708;23.360;2022-12-18T08:30:36;96680.88;;;4.13;72.21
36192;BME280;22233;42.708;23.360;2022-12-18T08:33:03;96689.47;;;4.27;70.85
36192;BME280;22233;42.708;23.360;2022-12-18T08:35:28;96685.63;;;3.94;72.09
36192;BME280;22233;42.708;23.360;2022-12-18T08:37:53;96702.28;;;4.08;71.78
36192;BME280;22233;42.708;23.360;2022-12-18T08:40:19;96693.47;;;3.84;71.61
36192;BME280;22233;42.708;23.360;2022-12-18T08:42:44;96693.41;;;4.08;71.37
36192;BME280;22233;42.708;23.360;2022-12-18T08:45:28;96695.63;;;4.11;71.29
36192;BME280;22233;42.708;23.360;2022-12-18T08:47:54;96694.84;;;3.98;70.34
36192;BME280;22233;42.708;23.360;2022-12-18T08:50:19;96708.22;;;4.10;69.80
36192;BME280;22233;42.708;23.360;2022-12-18T08:52:45;96694.88;;;3.87;70.21
36192;BME280;22233;42.708;23.360;2022-12-18T08:55:10;96707.78;;;3.73;71.03
36192;BME280;22233;42.708;23.360;2022-12-18T08:57:36;96701.66;;;3.89;69.05
36192;BME280;22233;42.708;23.360;2022-12-18T09:00:02;96704.47;;;3.94;69.40
36192;BME280;22233;42.708;23.360;2022-12-18T09:02:28;96685.88;;;3.93;70.07
36192;BME280;22233;42.708;23.360;2022-12-18T09:04:53;96700.13;;;4.22;69.29
36192;BME280;22233;42.708;23.360;2022-12-18T09:07:19;96693.31;;;4.03;69.41
36192;BME280;22233;42.708;23.360;2022-12-18T09:09:44;96704.53;;;4.28;68.90
36192;BME280;22233;42.708;23.360;2022-12-18T09:12:09;96687.88;;;4.43;67.84
36192;BME280;22233;42.708;23.360;2022-12-18T09:14:36;96698.69;;;4.31;68.78
36192;BME280;22233;42.708;23.360;2022-12-18T09:17:01;96707.41;;;4.38;68.41
36192;BME280;22233;42.708;23.360;2022-12-18T09:19:27;96695.13;;;4.14;68.97
36192;BME280;22233;42.708;23.360;2022-12-18T09:21:52;96697.16;;;4.35;67.95
36192;BME280;22233;42.708;23.360;2022-12-18T09:24:18;96695.94;;;4.43;67.71
36192;BME280;22233;42.708;23.360;2022-12-18T09:26:43;96701.31;;;4.43;67.56
36192;BME280;22233;42.708;23.360;2022-12-18T09:29:09;96695.81;;;4.21;68.39
36192;BME280;22233;42.708;23.360;2022-12-18T09:31:34;96687.97;;;4.19;68.10
36192;BME280;22233;42.708;23.360;2022-12-18T09:34:00;96706.06;;;3.95;69.69
36192;BME280;22233;42.708;23.360;2022-12-18T09:36:26;96689.66;;;4.09;68.50
36192;BME280;22233;42.708;23.360;2022-12-18T09:38:51;96682.00;;;4.00;69.60
36192;BME280;22233;42.708;23.360;2022-12-18T09:43:47;96703.16;;;4.43;68.38
36192;BME280;22233;42.708;23.360;2022-12-18T09:46:36;96707.72;;;4.25;68.69
36192;BME280;22233;42.708;23.360;2022-12-18T09:49:09;96693.31;;;4.31;67.99
36192;BME280;22233;42.708;23.360;2022-12-18T09:51:52;96705.97;;;4.48;68.42
36192;BME280;22233;42.708;23.360;2022-12-18T09:54:40;96705.66;;;4.61;67.57
36192;BME280;22233;42.708;23.360;2022-12-18T09:57:13;96693.66;;;4.69;66.13
36192;BME280;22233;42.708;23.360;2022-12-18T09:59:39;96705.09;;;4.59;66.20
36192;BME280;22233;42.708;23.360;2022-12-18T10:02:14;96696.81;;;4.32;67.23
36192;BME280;22233;42.708;23.360;2022-12-18T10:04:40;96697.72;;;4.54;67.67
36192;BME280;22233;42.708;23.360;2022-12-18T10:07:19;96701.66;;;4.47;67.70
36192;BME280;22233;42.708;23.360;2022-12-18T10:09:51;96705.50;;;4.85;66.57
36192;BME280;22233;42.708;23.360;2022-12-18T10:12:37;96708.13;;;4.79;66.80
36192;BME280;22233;42.708;23.360;2022-12-18T10:15:41;96709.75;;;4.80;66.91
36192;BME280;22233;42.708;23.360;2022-12-18T10:21:39;96704.34;;;5.31;80.54
36192;BME280;22233;42.708;23.360;2022-12-18T10:24:21;96703.50;;;5.31;66.08
36192;BME280;22233;42.708;23.360;2022-12-18T10:26:49;96707.34;;;5.35;65.18
36192;BME280;22233;42.708;23.360;2022-12-18T10:29:16;96713.69;;;4.90;65.46
36192;BME280;22233;42.708;23.360;2022-12-18T10:31:42;96706.91;;;5.04;65.14
36192;BME280;22233;42.708;23.360;2022-12-18T10:34:17;96704.69;;;5.18;64.72
36192;BME280;22233;42.708;23.360;2022-12-18T10:36:42;96706.28;;;5.19;64.53
36192;BME280;22233;42.708;23.360;2022-12-18T10:41:41;96705.59;;;4.90;65.93
36192;BME280;22233;42.708;23.360;2022-12-18T10:44:23;96703.16;;;5.05;66.01
36192;BME280;22233;42.708;23.360;2022-12-18T10:47:02;96697.66;;;5.34;71.75
36192;BME280;22233;42.708;23.360;2022-12-18T10:49:31;96691.88;;;5.47;65.65
36192;BME280;22233;42.708;23.360;2022-12-18T10:52:06;96698.47;;;5.56;64.59
36192;BME280;22233;42.708;23.360;2022-12-18T10:54:33;96697.38;;;5.74;67.42
36192;BME280;22233;42.708;23.360;2022-12-18T10:57:36;96702.56;;;5.81;64.39
36192;BME280;22233;42.708;23.360;2022-12-18T11:00:22;96695.31;;;5.43;66.09
36192;BME280;22233;42.708;23.360;2022-12-18T11:02:48;96698.19;;;5.75;67.06
36192;BME280;22233;42.708;23.360;2022-12-18T11:05:27;96695.88;;;5.84;65.44
36192;BME280;22233;42.708;23.360;2022-12-18T11:07:53;96688.94;;;5.49;64.96
36192;BME280;22233;42.708;23.360;2022-12-18T11:10:28;96702.44;;;5.71;64.55
36192;BME280;22233;42.708;23.360;2022-12-18T11:12:55;96689.41;;;5.63;65.12
36192;BME280;22233;42.708;23.360;2022-12-18T11:15:26;96693.44;;;5.82;65.24
36192;BME280;22233;42.708;23.360;2022-12-18T11:17:52;96702.84;;;5.79;65.96
36192;BME280;22233;42.708;23.360;2022-12-18T11:20:30;96692.63;;;5.82;63.15
36192;BME280;22233;42.708;23.360;2022-12-18T11:23:01;96694.16;;;5.55;64.20
36192;BME280;22233;42.708;23.360;2022-12-18T11:25:28;96711.72;;;5.58;64.41
36192;BME280;22233;42.708;23.360;2022-12-18T11:28:00;96708.66;;;5.32;64.90
36192;BME280;22233;42.708;23.360;2022-12-18T11:30:31;96705.31;;;5.42;65.89
36192;BME280;22233;42.708;23.360;2022-12-18T11:33:19;96704.09;;;5.72;64.71
36192;BME280;22233;42.708;23.360;2022-12-18T11:36:03;96705.44;;;5.52;65.01
36192;BME280;22233;42.708;23.360;2022-12-18T11:38:32;96703.75;;;5.46;64.12
36192;BME280;22233;42.708;23.360;2022-12-18T11:41:04;96705.19;;;5.54;65.30
36192;BME280;22233;42.708;23.360;2022-12-18T11:43:41;96696.38;;;5.80;64.27
36192;BME280;22233;42.708;23.360;2022-12-18T11:46:14;96697.56;;;5.68;63.32
36192;BME280;22233;42.708;23.360;2022-12-18T11:48:48;96695.97;;;5.50;64.30
36192;BME280;22233;42.708;23.360;2022-12-18T11:51:28;96697.28;;;5.47;63.21
36192;BME280;22233;42.708;23.360;2022-12-18T11:53:57;96693.06;;;5.34;63.48
36192;BME280;22233;42.708;23.360;2022-12-18T12:05:22;96690.47;;;5.23;64.19
36192;BME280;22233;42.708;23.360;2022-12-18T12:07:56;96700.25;;;5.29;64.36
36192;BME280;22233;42.708;23.360;2022-12-18T12:10:43;96694.09;;;5.72;63.11
36192;BME280;22233;42.708;23.360;2022-12-18T12:21:41;96702.38;;;5.27;64.71
36192;BME280;22233;42.708;23.360;2022-12-18T12:24:38;96702.78;;;5.35;64.00
36192;BME280;22233;42.708;23.360;2022-12-18T12:30:00;96696.41;;;5.42;63.91
36192;BME280;22233;42.708;23.360;2022-12-18T12:35:25;96699.41;;;5.45;63.93
36192;BME280;22233;42.708;23.360;2022-12-18T12:38:16;96720.63;;;5.58;63.10
36192;BME280;22233;42.708;23.360;2022-12-18T12:40:48;96706.22;;;5.70;63.27
36192;BME280;22233;42.708;23.360;2022-12-18T12:43:30;96712.31;;;5.43;63.50
36192;BME280;22233;42.708;23.360;2022-12-18T12:46:03;96690.47;;;5.23;64.44
36192;BME280;22233;42.708;23.360;2022-12-18T12:48:35;96702.66;;;5.47;63.96
36192;BME280;22233;42.708;23.360;2022-12-18T12:51:07;96704.88;;;5.50;64.62
36192;BME280;22233;42.708;23.360;2022-12-18T12:53:36;96714.75;;;5.62;63.74
36192;BME280;22233;42.708;23.360;2022-12-18T12:56:04;96709.03;;;5.41;64.93
36192;BME280;22233;42.708;23.360;2022-12-18T13:01:08;96706.53;;;5.34;64.73
36192;BME280;22233;42.708;23.360;2022-12-18T13:04:56;96714.56;;;5.51;63.73
36192;BME280;22233;42.708;23.360;2022-12-18T13:07:42;96722.81;;;5.62;62.96
36192;BME280;22233;42.708;23.360;2022-12-18T13:10:14;96729.78;;;5.40;63.11
36192;BME280;22233;42.708;23.360;2022-12-18T13:13:04;96732.44;;;5.35;63.45
36192;BME280;22233;42.708;23.360;2022-12-18T13:15:43;96746.16;;;5.34;63.43
36192;BME280;22233;42.708;23.360;2022-12-18T13:20:42;96743.88;;;5.26;63.73
36192;BME280;22233;42.708;23.360;2022-12-18T13:25:59;96753.72;;;5.37;63.08
36192;BME280;22233;42.708;23.360;2022-12-18T13:34:15;96750.78;;;5.05;64.55
36192;BME280;22233;42.708;23.360;2022-12-18T13:36:41;96756.50;;;5.08;64.97
36192;BME280;22233;42.708;23.360;2022-12-18T13:39:33;96753.00;;;5.25;64.29
36192;BME280;22233;42.708;23.360;2022-12-18T13:44:34;96764.03;;;5.40;64.14
36192;BME280;22233;42.708;23.360;2022-12-18T13:47:04;96756.94;;;5.73;63.54
36192;BME280;22233;42.708;23.360;2022-12-18T13:49:41;96768.16;;;5.65;62.82
36192;BME280;22233;42.708;23.360;2022-12-18T13:52:21;96776.91;;;5.04;65.04
36192;BME280;22233;42.708;23.360;2022-12-18T13:54:52;96785.84;;;5.22;64.76
36192;BME280;22233;42.708;23.360;2022-12-18T13:59:53;96783.19;;;5.27;64.40
36192;BME280;22233;42.708;23.360;2022-12-18T14:02:27;96776.09;;;5.04;64.71
36192;BME280;22233;42.708;23.360;2022-12-18T14:04:53;96785.84;;;5.22;64.23
36192;BME280;22233;42.708;23.360;2022-12-18T14:07:20;96792.84;;;5.39;63.24
36192;BME280;22233;42.708;23.360;2022-12-18T14:09:49;96786.00;;;5.32;63.28
36192;BME280;22233;42.708;23.360;2022-12-18T14:12:18;96791.78;;;5.24;63.07
36192;BME280;22233;42.708;23.360;2022-12-18T14:15:06;96784.34;;;5.31;62.50
36192;BME280;22233;42.708;23.360;2022-12-18T14:17:40;96772.09;;;5.06;62.34
36192;BME280;22233;42.708;23.360;2022-12-18T14:20:15;96775.53;;;5.02;62.88
36192;BME280;22233;42.708;23.360;2022-12-18T14:22:43;96775.13;;;5.27;62.43
36192;BME280;22233;42.708;23.360;2022-12-18T14:27:49;96791.81;;;4.78;64.37